Time;durP1;ratioP1;P1;durP2;ratioP2;P2;SDS_P1;SDS_P2;PMS_P1;PMS_P2;Temp;Humidity;BMP_temperature;BMP_pressure;BME280_temperature;BME280_humidity;BME280_pressure;Samples;Min_cycle;Max_cycle;Signal;HPM_P1;HPM_P2
2022/06/23 00:01:22;;;;;;;29.95;4.75;;;;;;;;;;5038240;28;20032;-67
2022/06/23 00:03:54;;;;;;;30.58;4.95;;;;;;;;;;5037012;28;20131;-68
2022/06/23 00:06:44;;;;;;;29.80;5.60;;;;;;;;;;5019278;28;20505;-68
2022/06/23 00:09:45;;;;;;;30.20;5.00;;;;;;;;;;5027504;28;20032;-69
2022/06/23 00:12:30;;;;;;;19.67;4.60;;;;;;;;;;4983766;28;20040;-70
2022/06/23 00:14:59;;;;;;;33.00;5.97;;;;;;;;;;5030528;28;20036;-69
2022/06/23 00:17:31;;;;;;;28.00;4.97;;;;;;;;;;5034641;28;20469;-69
2022/06/23 00:20:05;;;;;;;26.95;5.25;;;;;;;;;;5033897;28;20074;-69
2022/06/23 00:22:33;;;;;;;30.60;5.85;;;;;;;;;;5036846;28;20036;-71
2022/06/23 00:25:03;;;;;;;24.65;4.80;;;;;;;;;;5013105;28;20128;-70
2022/06/23 00:27:33;;;;;;;31.45;5.60;;;;;;;;;;5035262;28;20996;-72
2022/06/23 00:30:01;;;;;;;33.85;5.80;;;;;;;;;;5032129;28;20042;-72
2022/06/23 00:32:31;;;;;;;25.77;4.70;;;;;;;;;;5019005;28;20033;-71
2022/06/23 00:35:07;;;;;;;26.73;4.78;;;;;;;;;;5028614;28;20480;-71
2022/06/23 00:37:34;;;;;;;26.20;5.85;;;;;;;;;;5036491;28;20041;-70
2022/06/23 00:40:14;;;;;;;29.30;5.43;;;;;;;;;;5031040;28;20075;-70
2022/06/23 00:42:51;;;;;;;29.52;5.30;;;;;;;;;;5033621;28;20077;-70
2022/06/23 00:45:40;;;;;;;27.65;5.45;;;;;;;;;;5036034;28;20033;-71
2022/06/23 00:48:24;;;;;;;23.52;4.85;;;;;;;;;;5037942;28;20086;-70
2022/06/23 00:51:12;;;;;;;23.15;4.75;;;;;;;;;;5032078;28;20121;-71
2022/06/23 00:53:58;;;;;;;24.92;4.82;;;;;;;;;;5038228;28;20152;-72
2022/06/23 00:56:43;;;;;;;27.77;5.03;;;;;;;;;;5041166;28;20696;-71
2022/06/23 00:59:26;;;;;;;26.65;5.30;;;;;;;;;;5033380;28;20060;-70
2022/06/23 01:02:06;;;;;;;23.17;4.47;;;;;;;;;;5035581;28;20086;-71
2022/06/23 01:04:45;;;;;;;24.10;4.45;;;;;;;;;;5037602;28;20068;-71
2022/06/23 01:07:30;;;;;;;24.13;4.78;;;;;;;;;;5032237;28;20028;-71
2022/06/23 01:10:02;;;;;;;22.45;4.15;;;;;;;;;;5039630;28;20036;-71
2022/06/23 01:12:37;;;;;;;21.80;3.70;;;;;;;;;;5043166;28;20059;-70
2022/06/23 01:15:07;;;;;;;21.42;3.40;;;;;;;;;;5031581;28;20478;-71
2022/06/23 01:17:38;;;;;;;21.10;3.60;;;;;;;;;;5039885;28;20644;-70
2022/06/23 01:20:16;;;;;;;21.23;3.88;;;;;;;;;;5035240;28;20103;-70
2022/06/23 01:22:49;;;;;;;25.63;3.47;;;;;;;;;;5038644;28;20501;-70
2022/06/23 01:25:18;;;;;;;20.70;3.50;;;;;;;;;;5034317;28;20039;-70
2022/06/23 01:28:00;;;;;;;22.42;3.80;;;;;;;;;;5040802;28;20024;-70
2022/06/23 01:30:30;;;;;;;19.48;3.50;;;;;;;;;;5040009;28;20036;-70
2022/06/23 01:33:08;;;;;;;16.13;3.40;;;;;;;;;;5035572;28;20112;-69
2022/06/23 01:35:44;;;;;;;17.95;3.40;;;;;;;;;;5035913;28;20048;-69
2022/06/23 01:38:14;;;;;;;19.77;3.43;;;;;;;;;;5036006;28;20265;-69
2022/06/23 01:40:45;;;;;;;22.80;3.60;;;;;;;;;;5042817;28;20028;-69
2022/06/23 01:43:26;;;;;;;18.15;3.17;;;;;;;;;;5034277;28;20076;-71
2022/06/23 01:46:15;;;;;;;21.80;3.42;;;;;;;;;;5034666;28;20035;-69
2022/06/23 01:48:53;;;;;;;19.60;3.72;;;;;;;;;;5038243;28;20036;-69
2022/06/23 01:51:38;;;;;;;17.67;3.20;;;;;;;;;;5038012;28;20059;-69
2022/06/23 01:54:13;;;;;;;16.77;3.58;;;;;;;;;;5038427;28;20040;-69
2022/06/23 01:56:58;;;;;;;19.73;3.72;;;;;;;;;;5037387;28;20306;-71
2022/06/23 01:59:37;;;;;;;23.13;3.05;;;;;;;;;;5036669;28;20063;-69
2022/06/23 02:02:21;;;;;;;18.95;3.55;;;;;;;;;;5033905;28;20052;-70
2022/06/23 02:05:19;;;;;;;19.20;3.60;;;;;;;;;;5038496;28;20032;-70
2022/06/23 02:07:55;;;;;;;18.23;3.30;;;;;;;;;;5038711;28;20024;-70
2022/06/23 02:10:22;;;;;;;;;;;;;;;;;;5038932;28;20556;-70
2022/06/23 02:13:00;;;;;;;18.98;3.45;;;;;;;;;;5036305;28;21021;-70
2022/06/23 02:15:47;;;;;;;16.10;3.03;;;;;;;;;;5038284;28;20021;-70
2022/06/23 02:18:37;;;;;;;22.17;3.50;;;;;;;;;;5021903;28;20037;-69
2022/06/23 02:21:27;;;;;;;18.10;3.55;;;;;;;;;;5035231;28;20025;-69
2022/06/23 02:23:56;;;;;;;18.17;2.85;;;;;;;;;;5038246;28;20031;-70
2022/06/23 02:26:57;;;;;;;16.27;2.83;;;;;;;;;;5036605;28;20637;-70
2022/06/23 02:29:31;;;;;;;15.60;2.95;;;;;;;;;;5035490;28;20661;-69
2022/06/23 02:32:07;;;;;;;14.02;3.00;;;;;;;;;;5028172;28;20561;-70
2022/06/23 02:34:46;;;;;;;18.63;2.67;;;;;;;;;;5035205;28;20237;-69
2022/06/23 02:37:32;;;;;;;17.98;3.10;;;;;;;;;;5028386;28;20309;-70
2022/06/23 02:40:00;;;;;;;19.63;3.42;;;;;;;;;;5029844;28;20558;-69
2022/06/23 02:42:36;;;;;;;15.60;2.78;;;;;;;;;;5039495;28;20029;-70
2022/06/23 02:45:22;;;;;;;15.15;3.35;;;;;;;;;;5034706;28;20064;-70
2022/06/23 02:48:00;;;;;;;23.65;3.72;;;;;;;;;;5037268;28;20085;-70
2022/06/23 02:50:52;;;;;;;25.67;3.55;;;;;;;;;;5039535;28;20041;-69
2022/06/23 02:53:32;;;;;;;19.88;3.20;;;;;;;;;;5039008;28;20565;-69
2022/06/23 02:56:04;;;;;;;20.75;3.65;;;;;;;;;;5020122;28;20028;-70
2022/06/23 02:58:34;;;;;;;27.67;4.72;;;;;;;;;;5038504;28;20025;-70
2022/06/23 03:01:07;;;;;;;18.52;3.20;;;;;;;;;;5034399;28;20044;-70
2022/06/23 03:03:49;;;;;;;20.42;3.50;;;;;;;;;;5040442;28;20364;-70
2022/06/23 03:06:22;;;;;;;22.10;3.63;;;;;;;;;;5036057;28;20113;-70
2022/06/23 03:08:51;;;;;;;21.92;3.38;;;;;;;;;;5036247;28;20510;-71
2022/06/23 03:11:51;;;;;;;19.02;3.35;;;;;;;;;;5034096;28;20032;-70
2022/06/23 03:14:08;;;;;;;21.65;3.80;;;;;;;;;;5033364;28;20027;-70
2022/06/23 03:16:37;;;;;;;18.25;3.47;;;;;;;;;;5041015;28;20123;-70
2022/06/23 03:19:06;;;;;;;19.55;3.58;;;;;;;;;;5033929;28;20067;-70
2022/06/23 03:21:44;;;;;;;18.73;3.13;;;;;;;;;;5035252;28;20032;-70
2022/06/23 03:24:26;;;;;;;19.70;3.78;;;;;;;;;;5032436;28;20527;-70
2022/06/23 03:26:55;;;;;;;16.48;2.88;;;;;;;;;;5012581;28;20135;-70
2022/06/23 03:29:26;;;;;;;21.27;3.40;;;;;;;;;;5016779;28;20083;-70
2022/06/23 03:32:11;;;;;;;15.18;3.10;;;;;;;;;;5031043;28;20032;-70
2022/06/23 03:34:37;;;;;;;21.65;3.50;;;;;;;;;;5032784;28;20033;-70
2022/06/23 03:37:03;;;;;;;;;;;;;;;;;;5012694;28;20784;-70
2022/06/23 03:42:32;;;;;;;16.05;3.05;;;;;;;;;;5032035;28;20496;-70
2022/06/23 03:45:05;;;;;;;18.40;3.15;;;;;;;;;;5029999;28;20098;-70
2022/06/23 03:47:36;;;;;;;16.85;3.47;;;;;;;;;;5025387;28;20139;-69
2022/06/23 03:50:07;;;;;;;19.42;3.22;;;;;;;;;;5032409;28;20058;-69
2022/06/23 03:53:07;;;;;;;16.27;3.00;;;;;;;;;;5038990;28;20812;-70
2022/06/23 03:55:48;;;;;;;19.85;3.13;;;;;;;;;;4936250;28;20043;-69
2022/06/23 03:58:22;;;;;;;19.67;3.58;;;;;;;;;;4917486;28;20061;-70
2022/06/23 04:01:03;;;;;;;19.35;3.13;;;;;;;;;;4940305;28;20032;-70
2022/06/23 04:03:41;;;;;;;18.45;3.08;;;;;;;;;;4934615;28;20456;-70
2022/06/23 04:06:42;;;;;;;18.65;3.75;;;;;;;;;;4937919;28;20607;-70
2022/06/23 04:09:24;;;;;;;24.50;3.67;;;;;;;;;;4894887;29;20124;-72
2022/06/23 04:12:09;;;;;;;18.15;3.45;;;;;;;;;;4885134;29;20042;-71
2022/06/23 04:14:54;;;;;;;18.20;3.67;;;;;;;;;;4899964;29;20036;-70
2022/06/23 04:17:26;;;;;;;17.80;3.60;;;;;;;;;;4888312;29;20032;-70
2022/06/23 04:20:10;;;;;;;16.90;3.45;;;;;;;;;;4893465;29;20043;-71
2022/06/23 04:22:52;;;;;;;16.63;3.22;;;;;;;;;;4883807;29;20489;-70
2022/06/23 04:25:25;;;;;;;19.75;3.65;;;;;;;;;;4863630;29;20044;-70
2022/06/23 04:27:59;;;;;;;20.75;3.60;;;;;;;;;;4880403;29;20040;-71
2022/06/23 04:30:29;;;;;;;20.85;3.53;;;;;;;;;;4885444;28;20073;-70
2022/06/23 04:33:00;;;;;;;15.85;3.20;;;;;;;;;;4988434;28;20420;-70
2022/06/23 04:35:32;;;;;;;22.63;3.80;;;;;;;;;;4977100;28;20044;-69
2022/06/23 04:38:17;;;;;;;16.92;3.53;;;;;;;;;;4989868;28;20056;-70
2022/06/23 04:41:12;;;;;;;17.27;3.13;;;;;;;;;;4971119;28;20037;-70
2022/06/23 04:43:55;;;;;;;14.48;2.78;;;;;;;;;;4991929;28;20045;-70
2022/06/23 04:46:29;;;;;;;15.95;3.00;;;;;;;;;;5000181;28;20040;-69
2022/06/23 04:49:09;;;;;;;17.92;3.47;;;;;;;;;;5034044;28;20115;-70
2022/06/23 04:51:40;;;;;;;20.33;3.70;;;;;;;;;;5027860;28;20060;-70
2022/06/23 04:54:16;;;;;;;20.83;3.38;;;;;;;;;;5033316;28;20025;-71
2022/06/23 04:56:42;;;;;;;24.63;3.90;;;;;;;;;;5035116;28;20061;-69
2022/06/23 04:59:08;;;;;;;;;;;;;;;;;;5031617;28;20037;-70
2022/06/23 05:01:39;;;;;;;16.75;2.78;;;;;;;;;;5042073;28;20379;-71
2022/06/23 05:04:11;;;;;;;18.20;3.42;;;;;;;;;;5028386;28;20036;-71
2022/06/23 05:06:58;;;;;;;17.55;3.42;;;;;;;;;;5033043;28;20478;-70
2022/06/23 05:09:27;;;;;;;17.85;3.00;;;;;;;;;;5035332;28;20029;-71
2022/06/23 05:11:57;;;;;;;22.25;3.35;;;;;;;;;;5030315;28;20033;-71
2022/06/23 05:14:34;;;;;;;15.73;2.88;;;;;;;;;;5021410;28;20063;-71
2022/06/23 05:17:00;;;;;;;;;;;;;;;;;;5023097;28;20033;-71
2022/06/23 05:19:29;;;;;;;15.45;2.60;;;;;;;;;;5024086;28;19913;-71
2022/06/23 05:21:57;;;;;;;17.27;3.00;;;;;;;;;;5020422;28;20041;-70
2022/06/23 05:24:26;;;;;;;17.77;2.88;;;;;;;;;;5022119;28;20396;-70
2022/06/23 05:26:56;;;;;;;15.88;3.00;;;;;;;;;;5020444;28;20792;-70
2022/06/23 05:29:25;;;;;;;15.85;2.80;;;;;;;;;;5027539;28;20028;-70
2022/06/23 05:31:53;;;;;;;15.82;2.60;;;;;;;;;;5031720;28;20221;-71
2022/06/23 05:34:31;;;;;;;15.75;2.92;;;;;;;;;;5030015;28;20037;-70
2022/06/23 05:37:13;;;;;;;16.48;2.78;;;;;;;;;;5026946;28;20570;-71
2022/06/23 05:39:49;;;;;;;18.00;3.28;;;;;;;;;;5031505;28;20832;-71
2022/06/23 05:42:19;;;;;;;13.38;2.85;;;;;;;;;;5027939;28;20113;-70
2022/06/23 05:44:53;;;;;;;15.00;2.83;;;;;;;;;;5030626;28;20474;-70
2022/06/23 05:47:20;;;;;;;14.23;2.70;;;;;;;;;;5030221;28;20146;-70
2022/06/23 05:49:50;;;;;;;17.10;3.65;;;;;;;;;;5030407;28;20186;-70
2022/06/23 05:52:22;;;;;;;20.20;3.10;;;;;;;;;;5030791;28;20435;-71
2022/06/23 05:55:08;;;;;;;20.58;3.40;;;;;;;;;;5035236;28;20020;-70
2022/06/23 05:57:51;;;;;;;17.25;3.30;;;;;;;;;;5031378;28;20348;-70
2022/06/23 06:00:25;;;;;;;16.85;3.78;;;;;;;;;;5027455;28;20033;-70
2022/06/23 06:02:57;;;;;;;17.15;2.95;;;;;;;;;;5026450;28;20066;-70
2022/06/23 06:05:42;;;;;;;14.60;2.90;;;;;;;;;;5034865;28;20439;-70
2022/06/23 06:08:17;;;;;;;17.08;3.10;;;;;;;;;;5029010;28;20288;-69
2022/06/23 06:10:47;;;;;;;15.90;3.55;;;;;;;;;;5037606;28;20024;-69
2022/06/23 06:13:19;;;;;;;23.13;4.05;;;;;;;;;;5036958;28;20033;-69
2022/06/23 06:15:51;;;;;;;27.25;6.63;;;;;;;;;;5010185;28;20040;-70
2022/06/23 06:18:37;;;;;;;18.98;4.18;;;;;;;;;;5038787;28;20429;-70
2022/06/23 06:21:08;;;;;;;18.05;3.75;;;;;;;;;;5033332;28;20047;-67
2022/06/23 06:23:48;;;;;;;21.00;4.15;;;;;;;;;;5037909;28;20118;-67
2022/06/23 06:26:18;;;;;;;16.92;3.72;;;;;;;;;;5027969;28;20067;-66
2022/06/23 06:28:45;;;;;;;19.55;4.20;;;;;;;;;;4992522;28;20244;-69
2022/06/23 06:31:25;;;;;;;25.27;3.90;;;;;;;;;;5034160;28;20055;-65
2022/06/23 06:34:08;;;;;;;14.85;3.60;;;;;;;;;;5047234;28;21756;-72
2022/06/23 06:36:40;;;;;;;16.75;3.90;;;;;;;;;;5041530;28;20029;-71
2022/06/23 06:39:30;;;;;;;23.33;4.30;;;;;;;;;;5043615;28;20031;-70
2022/06/23 06:42:09;;;;;;;19.27;4.20;;;;;;;;;;5033067;28;20045;-70
2022/06/23 06:44:43;;;;;;;16.40;4.07;;;;;;;;;;5029182;28;20472;-71
2022/06/23 06:47:17;;;;;;;19.50;4.32;;;;;;;;;;5041416;28;21126;-71
2022/06/23 06:49:45;;;;;;;23.45;4.50;;;;;;;;;;5045455;28;20143;-71
2022/06/23 06:52:13;;;;;;;22.17;5.00;;;;;;;;;;5041297;28;20040;-71
2022/06/23 06:55:00;;;;;;;21.13;4.57;;;;;;;;;;5046316;28;20025;-71
2022/06/23 06:57:35;;;;;;;26.83;4.90;;;;;;;;;;5046009;28;20410;-71
2022/06/23 07:00:08;;;;;;;20.52;4.57;;;;;;;;;;5042104;28;20430;-70
2022/06/23 07:02:38;;;;;;;18.65;4.43;;;;;;;;;;5030074;28;20030;-73
2022/06/23 07:05:10;;;;;;;21.65;5.50;;;;;;;;;;4983232;28;20044;-71
2022/06/23 07:07:40;;;;;;;18.70;4.60;;;;;;;;;;4984404;28;20850;-71
2022/06/23 07:10:26;;;;;;;21.90;4.70;;;;;;;;;;4985545;28;20072;-71
2022/06/23 07:12:57;;;;;;;22.52;5.13;;;;;;;;;;4985702;28;20268;-70
2022/06/23 07:15:23;;;;;;;21.33;5.07;;;;;;;;;;4981847;28;20028;-71
2022/06/23 07:17:59;;;;;;;24.40;5.18;;;;;;;;;;4979061;28;21399;-71
2022/06/23 07:20:31;;;;;;;22.63;5.55;;;;;;;;;;4991432;28;20544;-71
2022/06/23 07:23:07;;;;;;;27.02;5.35;;;;;;;;;;4988722;28;20044;-72
2022/06/23 07:25:37;;;;;;;22.95;5.38;;;;;;;;;;4994231;28;20475;-71
2022/06/23 07:28:03;;;;;;;23.88;5.35;;;;;;;;;;4990259;28;20032;-71
2022/06/23 07:30:29;;;;;;;20.00;4.63;;;;;;;;;;4992831;28;20630;-72
2022/06/23 07:32:58;;;;;;;23.00;4.72;;;;;;;;;;4978911;28;20471;-72
2022/06/23 07:35:42;;;;;;;23.42;4.82;;;;;;;;;;4990428;28;20055;-72
2022/06/23 07:38:11;;;;;;;18.17;4.25;;;;;;;;;;4988671;28;20036;-72
2022/06/23 07:40:48;;;;;;;25.95;5.25;;;;;;;;;;4996709;28;20062;-73
2022/06/23 07:43:23;;;;;;;22.80;5.07;;;;;;;;;;5046405;28;20452;-73
2022/06/23 07:45:53;;;;;;;18.75;4.38;;;;;;;;;;5023774;28;20268;-72
2022/06/23 07:48:19;;;;;;;25.40;5.72;;;;;;;;;;5046019;28;20129;-72
2022/06/23 07:50:46;;;;;;;22.70;4.60;;;;;;;;;;5039325;28;20067;-72
2022/06/23 07:53:33;;;;;;;21.90;5.28;;;;;;;;;;5009882;28;20475;-71
2022/06/23 07:56:01;;;;;;;27.95;5.80;;;;;;;;;;5030845;28;20055;-71
2022/06/23 07:58:36;;;;;;;18.23;4.97;;;;;;;;;;5021083;28;20447;-72
2022/06/23 08:01:11;;;;;;;23.88;5.50;;;;;;;;;;5024009;28;20070;-72
2022/06/23 08:03:40;;;;;;;22.98;5.20;;;;;;;;;;5025753;28;20493;-72
2022/06/23 08:06:10;;;;;;;22.98;5.20;;;;;;;;;;5013136;28;20467;-71
2022/06/23 08:08:40;;;;;;;22.13;4.65;;;;;;;;;;5024005;28;20404;-72
2022/06/23 08:14:02;;;;;;;18.33;4.45;;;;;;;;;;5009327;28;20089;-73
2022/06/23 08:19:34;;;;;;;21.05;5.07;;;;;;;;;;5014039;28;20085;-73
2022/06/23 08:22:08;;;;;;;17.40;4.55;;;;;;;;;;5018157;28;20493;-72
2022/06/23 08:24:39;;;;;;;20.55;4.20;;;;;;;;;;5022796;28;20029;-72
2022/06/23 08:27:20;;;;;;;23.42;4.55;;;;;;;;;;5006638;28;20731;-71
2022/06/23 08:29:54;;;;;;;20.65;4.32;;;;;;;;;;5026064;28;20028;-72
2022/06/23 08:32:22;;;;;;;20.85;4.28;;;;;;;;;;5011256;28;20422;-71
2022/06/23 08:35:08;;;;;;;18.75;4.18;;;;;;;;;;5040956;28;20089;-72
2022/06/23 08:37:52;;;;;;;21.40;4.70;;;;;;;;;;5037229;28;20021;-71
2022/06/23 08:40:38;;;;;;;22.48;4.65;;;;;;;;;;5048446;28;20024;-71
2022/06/23 08:43:15;;;;;;;24.00;4.97;;;;;;;;;;5045551;28;20631;-71
2022/06/23 08:45:52;;;;;;;18.40;4.35;;;;;;;;;;5041437;28;20661;-72
2022/06/23 08:48:37;;;;;;;21.15;4.63;;;;;;;;;;5041732;28;20029;-73
2022/06/23 08:51:37;;;;;;;18.50;3.83;;;;;;;;;;5022538;28;20163;-74
2022/06/23 08:54:22;;;;;;;24.75;4.75;;;;;;;;;;5004916;28;20044;-71
2022/06/23 08:56:55;;;;;;;19.05;3.83;;;;;;;;;;5040234;28;20115;-72
2022/06/23 08:59:24;;;;;;;18.83;3.72;;;;;;;;;;5040116;28;20671;-73
2022/06/23 09:01:58;;;;;;;23.80;4.75;;;;;;;;;;5036149;28;20911;-72
2022/06/23 09:04:43;;;;;;;21.02;4.15;;;;;;;;;;5027610;28;20758;-73
2022/06/23 09:07:22;;;;;;;21.58;4.25;;;;;;;;;;5042188;28;20039;-73
2022/06/23 09:10:15;;;;;;;15.20;2.95;;;;;;;;;;5045622;28;20039;-72
2022/06/23 09:12:46;;;;;;;21.52;3.53;;;;;;;;;;4966102;28;20049;-72
2022/06/23 09:15:31;;;;;;;19.45;4.00;;;;;;;;;;4945940;28;20045;-73
2022/06/23 09:18:05;;;;;;;18.77;3.88;;;;;;;;;;4961929;28;20045;-73
2022/06/23 09:20:31;;;;;;;21.55;3.85;;;;;;;;;;4955271;28;20351;-71
2022/06/23 09:23:12;;;;;;;19.92;4.60;;;;;;;;;;4963900;28;20038;-72
2022/06/23 09:25:41;;;;;;;17.30;3.45;;;;;;;;;;4966530;28;20041;-73
2022/06/23 09:28:11;;;;;;;17.55;3.67;;;;;;;;;;4964457;28;20104;-72
2022/06/23 09:30:57;;;;;;;18.02;3.75;;;;;;;;;;4961802;28;20035;-72
2022/06/23 09:33:41;;;;;;;18.98;3.30;;;;;;;;;;4949104;28;20390;-72
2022/06/23 09:36:10;;;;;;;20.27;3.80;;;;;;;;;;4927502;28;20042;-71
2022/06/23 09:38:39;;;;;;;17.90;3.85;;;;;;;;;;4948986;28;20179;-72
2022/06/23 09:41:13;;;;;;;15.85;3.53;;;;;;;;;;4945113;28;20039;-71
2022/06/23 09:43:49;;;;;;;22.90;4.13;;;;;;;;;;4931839;28;20133;-71
2022/06/23 09:46:34;;;;;;;22.75;4.55;;;;;;;;;;4951063;28;20041;-71
2022/06/23 09:49:06;;;;;;;18.17;3.78;;;;;;;;;;4968988;28;20127;-72
2022/06/23 09:51:32;;;;;;;23.70;3.65;;;;;;;;;;5006019;28;20592;-72
2022/06/23 09:54:04;;;;;;;19.55;3.45;;;;;;;;;;5022122;28;20041;-73
2022/06/23 09:56:33;;;;;;;24.67;3.97;;;;;;;;;;4991193;28;20483;-72
2022/06/23 09:59:20;;;;;;;16.52;3.17;;;;;;;;;;4971774;28;20128;-71
2022/06/23 10:02:05;;;;;;;19.40;3.50;;;;;;;;;;4987721;28;20045;-73
2022/06/23 10:04:52;;;;;;;18.58;3.40;;;;;;;;;;4972969;28;20483;-71
2022/06/23 10:07:37;;;;;;;22.63;3.65;;;;;;;;;;4989516;28;20502;-71
2022/06/23 10:10:22;;;;;;;18.67;3.73;;;;;;;;;;4991863;28;21228;-71
2022/06/23 10:13:08;;;;;;;21.00;3.90;;;;;;;;;;4989612;28;20038;-72
2022/06/23 10:15:54;;;;;;;19.50;4.13;;;;;;;;;;4991244;28;21839;-71
2022/06/23 10:18:39;;;;;;;20.10;3.80;;;;;;;;;;4995496;28;20039;-71
2022/06/23 10:21:20;;;;;;;23.05;4.10;;;;;;;;;;4998588;28;20040;-71
2022/06/23 10:23:52;;;;;;;25.38;4.57;;;;;;;;;;5004818;28;20025;-71
2022/06/23 10:26:37;;;;;;;19.02;3.90;;;;;;;;;;5020486;28;20244;-71
2022/06/23 10:29:22;;;;;;;16.48;3.13;;;;;;;;;;5003780;28;20538;-71
2022/06/23 10:32:19;;;;;;;20.95;4.35;;;;;;;;;;5044083;28;20119;-71
2022/06/23 10:35:03;;;;;;;19.88;4.43;;;;;;;;;;4945476;28;20553;-71
2022/06/23 10:37:50;;;;;;;21.45;4.28;;;;;;;;;;4965906;28;20069;-71
2022/06/23 10:40:44;;;;;;;18.95;4.15;;;;;;;;;;4951590;28;20738;-72
2022/06/23 10:43:30;;;;;;;25.17;4.88;;;;;;;;;;4945488;28;20069;-72
2022/06/23 10:46:14;;;;;;;20.70;4.03;;;;;;;;;;4962416;28;20495;-72
2022/06/23 10:49:00;;;;;;;19.27;4.25;;;;;;;;;;4953899;28;20784;-72
2022/06/23 10:51:45;;;;;;;24.27;4.50;;;;;;;;;;4931548;28;20129;-72
2022/06/23 10:54:44;;;;;;;22.45;4.20;;;;;;;;;;4945846;28;20038;-72
2022/06/23 10:57:28;;;;;;;21.00;4.63;;;;;;;;;;4903441;29;20051;-71
2022/06/23 11:00:03;;;;;;;23.38;4.75;;;;;;;;;;4909441;29;20074;-72
2022/06/23 11:02:38;;;;;;;17.10;4.32;;;;;;;;;;4910500;29;20625;-72
2022/06/23 11:05:07;;;;;;;19.10;3.75;;;;;;;;;;4907423;29;20058;-70
2022/06/23 11:08:12;;;;;;;21.92;4.40;;;;;;;;;;4910084;29;20126;-70
2022/06/23 11:10:44;;;;;;;23.52;4.55;;;;;;;;;;4846804;29;20322;-69
2022/06/23 11:13:22;;;;;;;25.58;4.47;;;;;;;;;;4862974;29;20583;-70
2022/06/23 11:16:03;;;;;;;21.98;4.18;;;;;;;;;;4873267;29;20492;-71
2022/06/23 11:18:40;;;;;;;17.30;3.70;;;;;;;;;;4874862;29;20039;-71
2022/06/23 11:21:32;;;;;;;22.88;4.82;;;;;;;;;;4854953;29;20049;-71
2022/06/23 11:24:04;;;;;;;22.83;4.65;;;;;;;;;;4866542;29;20448;-70
2022/06/23 11:26:31;;;;;;;23.55;5.30;;;;;;;;;;4859016;29;20044;-70
2022/06/23 11:29:09;;;;;;;20.45;4.00;;;;;;;;;;4856992;29;20056;-70
2022/06/23 11:31:43;;;;;;;22.17;4.45;;;;;;;;;;4859261;29;20055;-70
2022/06/23 11:34:28;;;;;;;20.77;4.78;;;;;;;;;;4946448;28;20196;-70
2022/06/23 11:37:07;;;;;;;25.15;4.40;;;;;;;;;;4955345;28;20034;-70
2022/06/23 11:40:01;;;;;;;21.13;3.90;;;;;;;;;;4945248;28;20026;-72
2022/06/23 11:42:41;;;;;;;20.05;4.00;;;;;;;;;;5027972;28;20036;-70
2022/06/23 11:45:30;;;;;;;17.55;4.57;;;;;;;;;;5023586;28;20388;-71
2022/06/23 11:48:20;;;;;;;22.92;4.70;;;;;;;;;;4964668;28;20582;-71
2022/06/23 11:50:58;;;;;;;20.42;4.07;;;;;;;;;;4933472;28;20484;-73
2022/06/23 11:53:36;;;;;;;19.45;4.20;;;;;;;;;;4971505;28;20041;-74
2022/06/23 11:56:28;;;;;;;19.35;4.60;;;;;;;;;;4980250;28;20487;-73
2022/06/23 11:59:13;;;;;;;19.80;3.92;;;;;;;;;;4977953;28;20240;-73
2022/06/23 12:01:41;;;;;;;21.33;4.40;;;;;;;;;;4980656;28;20037;-73
2022/06/23 12:04:28;;;;;;;19.65;4.50;;;;;;;;;;4980683;28;20033;-73
2022/06/23 12:07:15;;;;;;;21.48;4.15;;;;;;;;;;4979468;28;20560;-74
2022/06/23 12:10:07;;;;;;;19.17;4.10;;;;;;;;;;4970910;28;20344;-72
2022/06/23 12:12:35;;;;;;;19.67;4.40;;;;;;;;;;4974946;28;20287;-72
2022/06/23 12:15:07;;;;;;;18.95;4.40;;;;;;;;;;4984413;28;20129;-71
2022/06/23 12:17:38;;;;;;;20.90;5.03;;;;;;;;;;4984776;28;20533;-72
2022/06/23 12:20:17;;;;;;;18.70;4.22;;;;;;;;;;4964659;28;20049;-72
2022/06/23 12:23:09;;;;;;;17.33;4.07;;;;;;;;;;4982960;28;20069;-72
2022/06/23 12:25:54;;;;;;;17.95;4.35;;;;;;;;;;4950965;28;20324;-72
2022/06/23 12:28:28;;;;;;;17.38;3.90;;;;;;;;;;4908022;28;20085;-73
2022/06/23 12:31:19;;;;;;;17.05;3.97;;;;;;;;;;4924164;28;20253;-73
2022/06/23 12:33:55;;;;;;;24.00;4.45;;;;;;;;;;4912635;28;20038;-71
2022/06/23 12:36:42;;;;;;;18.13;4.03;;;;;;;;;;4915335;28;20031;-72
2022/06/23 12:39:15;;;;;;;17.27;3.80;;;;;;;;;;4906322;28;20539;-71
2022/06/23 12:41:56;;;;;;;16.30;3.60;;;;;;;;;;4905179;28;20232;-72
2022/06/23 12:44:46;;;;;;;19.55;4.30;;;;;;;;;;4949182;28;20157;-78
2022/06/23 12:47:14;;;;;;;20.83;3.90;;;;;;;;;;4935679;28;20374;-78
2022/06/23 12:50:03;;;;;;;20.08;4.13;;;;;;;;;;4941904;28;20066;-78
2022/06/23 12:52:48;;;;;;;20.98;4.43;;;;;;;;;;4953993;28;20651;-75
2022/06/23 12:55:32;;;;;;;18.23;4.15;;;;;;;;;;4949556;28;20022;-75
2022/06/23 12:58:18;;;;;;;19.88;4.30;;;;;;;;;;4935091;28;20096;-74
2022/06/23 13:00:58;;;;;;;17.65;4.32;;;;;;;;;;4947729;28;20093;-74
2022/06/23 13:03:43;;;;;;;17.10;3.47;;;;;;;;;;5017570;28;20041;-74
2022/06/23 13:06:09;;;;;;;18.52;3.22;;;;;;;;;;5048492;28;21267;-74
2022/06/23 13:08:59;;;;;;;19.58;3.75;;;;;;;;;;5049451;28;20034;-74
2022/06/23 13:11:31;;;;;;;18.73;3.58;;;;;;;;;;5048018;28;20592;-74
2022/06/23 13:14:01;;;;;;;13.32;3.10;;;;;;;;;;5043994;28;20032;-75
2022/06/23 13:16:49;;;;;;;17.92;3.67;;;;;;;;;;5052857;28;20749;-74
2022/06/23 13:19:31;;;;;;;13.40;2.80;;;;;;;;;;5049566;28;20024;-74
2022/06/23 13:22:08;;;;;;;12.00;2.70;;;;;;;;;;5045706;28;20558;-74
2022/06/23 13:24:36;;;;;;;14.68;2.95;;;;;;;;;;5049704;28;20029;-74
2022/06/23 13:27:12;;;;;;;14.48;3.13;;;;;;;;;;5031698;28;20399;-75
2022/06/23 13:29:44;;;;;;;15.35;3.20;;;;;;;;;;5009922;28;20028;-74
2022/06/23 13:32:43;;;;;;;19.27;2.90;;;;;;;;;;5010825;28;21401;-74
2022/06/23 13:35:30;;;;;;;15.48;3.35;;;;;;;;;;4907986;28;24113;-76
2022/06/23 13:38:09;;;;;;;14.07;3.00;;;;;;;;;;4937855;28;20315;-75
2022/06/23 13:40:53;;;;;;;16.77;2.90;;;;;;;;;;4924326;28;20022;-73
2022/06/23 13:43:52;;;;;;;13.88;2.80;;;;;;;;;;4919928;28;20417;-73
2022/06/23 13:46:21;;;;;;;12.20;2.92;;;;;;;;;;4866509;29;20584;-72
2022/06/23 13:48:50;;;;;;;11.68;2.65;;;;;;;;;;4865592;29;20139;-72
2022/06/23 13:51:36;;;;;;;14.13;3.05;;;;;;;;;;4862166;29;20056;-72
2022/06/23 13:54:06;;;;;;;13.45;2.65;;;;;;;;;;4854682;29;20500;-71
2022/06/23 13:56:59;;;;;;;16.33;2.20;;;;;;;;;;4859940;29;20040;-72
2022/06/23 13:59:37;;;;;;;13.63;2.60;;;;;;;;;;4857766;29;20080;-72
2022/06/23 14:02:26;;;;;;;11.43;2.30;;;;;;;;;;4857030;29;20568;-72
2022/06/23 14:05:05;;;;;;;11.95;2.33;;;;;;;;;;4882771;29;20039;-72
2022/06/23 14:07:40;;;;;;;13.00;2.45;;;;;;;;;;4891990;29;20443;-71
2022/06/23 14:10:39;;;;;;;10.60;2.20;;;;;;;;;;4900800;28;20485;-71
2022/06/23 14:13:36;;;;;;;13.07;2.90;;;;;;;;;;4923991;28;20069;-71
2022/06/23 14:16:16;;;;;;;14.13;2.80;;;;;;;;;;4925043;28;20047;-71
2022/06/23 14:19:10;;;;;;;12.95;2.42;;;;;;;;;;4934901;28;20073;-71
2022/06/23 14:22:01;;;;;;;11.02;2.03;;;;;;;;;;4939299;28;20137;-71
2022/06/23 14:24:50;;;;;;;13.13;2.55;;;;;;;;;;4977146;28;20574;-71
2022/06/23 14:27:28;;;;;;;11.68;2.25;;;;;;;;;;4991193;28;20029;-72
2022/06/23 14:30:13;;;;;;;9.52;2.35;;;;;;;;;;4984564;28;20158;-72
2022/06/23 14:32:46;;;;;;;10.63;2.22;;;;;;;;;;4956505;28;20050;-73
2022/06/23 14:35:14;;;;;;;12.98;2.33;;;;;;;;;;4965299;28;20454;-71
2022/06/23 14:37:48;;;;;;;14.02;2.45;;;;;;;;;;4946823;28;20062;-71
2022/06/23 14:40:25;;;;;;;11.20;2.55;;;;;;;;;;4969938;28;20133;-71
2022/06/23 14:43:09;;;;;;;13.93;2.58;;;;;;;;;;4951627;28;20074;-71
2022/06/23 14:45:51;;;;;;;12.45;2.85;;;;;;;;;;4969424;28;20057;-72
2022/06/23 14:48:43;;;;;;;11.63;2.47;;;;;;;;;;4993781;28;20040;-71
2022/06/23 14:51:15;;;;;;;12.38;2.70;;;;;;;;;;4980961;28;21875;-71
2022/06/23 14:54:01;;;;;;;14.60;2.65;;;;;;;;;;4969302;28;20088;-71
2022/06/23 14:56:38;;;;;;;14.97;2.87;;;;;;;;;;4970060;28;20692;-72
2022/06/23 14:59:28;;;;;;;12.48;2.75;;;;;;;;;;4986553;28;20155;-70
2022/06/23 15:01:55;;;;;;;13.90;3.45;;;;;;;;;;4981451;28;20300;-71
2022/06/23 15:04:28;;;;;;;13.00;2.90;;;;;;;;;;4970509;28;20099;-72
2022/06/23 15:06:57;;;;;;;12.13;2.80;;;;;;;;;;4970223;28;20030;-72
2022/06/23 15:09:41;;;;;;;12.23;2.95;;;;;;;;;;4988073;28;20069;-72
2022/06/23 15:12:13;;;;;;;15.32;3.13;;;;;;;;;;4970985;28;20073;-72
2022/06/23 15:15:00;;;;;;;12.68;2.70;;;;;;;;;;4986684;28;20524;-73
2022/06/23 15:17:32;;;;;;;15.75;2.70;;;;;;;;;;4946905;28;20562;-72
2022/06/23 15:20:00;;;;;;;13.85;2.55;;;;;;;;;;4982107;28;20046;-71
2022/06/23 15:25:24;;;;;;;11.07;2.00;;;;;;;;;;4977975;28;20476;-71
2022/06/23 15:27:55;;;;;;;11.65;2.47;;;;;;;;;;5005649;28;20049;-72
2022/06/23 15:30:32;;;;;;;12.82;2.35;;;;;;;;;;5018877;28;20032;-71
2022/06/23 15:33:12;;;;;;;12.25;2.50;;;;;;;;;;5024264;28;20222;-71
2022/06/23 15:35:45;;;;;;;14.20;2.35;;;;;;;;;;5046038;28;20031;-71
2022/06/23 15:38:17;;;;;;;10.52;2.28;;;;;;;;;;5045998;28;20074;-71
2022/06/23 15:40:49;;;;;;;9.65;2.05;;;;;;;;;;5027173;28;20062;-71
2022/06/23 15:43:16;;;;;;;12.80;2.25;;;;;;;;;;5026462;28;20012;-71
2022/06/23 15:45:46;;;;;;;12.70;2.30;;;;;;;;;;5044866;28;20484;-70